LEPP/PNA METAR and TAF weather

Enter ICAO airport designator
Station Type Date Time Source
LEPP METAR 2022/05/23 13:30 UTC NOAA

LEPP 231330Z 34010KT 280V020 9999 SCT045 21/10 Q1011


Station Type Date Time Source
LEPP Decoded METAR 2022/05/23 13:30 UTC NOAA

Pamplona / Noain, Spain (LEPP) 42-46N 001-38W 453M
May 23, 2022 - 09:30 AM EDT / 2022.05.23 1330 UTC
Wind: from the NNW (340 degrees) at 12 MPH (10 KT) (direction variable):0
Visibility: greater than 7 mile(s):0
Sky conditions: partly cloudy
Temperature: 69 F (21 C)
Dew Point: 50 F (10 C)
Relative Humidity: 49%
Pressure (altimeter): 29.85 in. Hg (1011 hPa)
ob: LEPP 231330Z 34010KT 280V020 9999 SCT045 21/10 Q1011
cycle: 13

Station Type Date Time Source
LEPP TAF 2022/05/23 09:27 UTC NOAA

TAF LEPP 230800Z 2309/2409 33009KT 9999 FEW025 SCT040 TX22/2314Z TN12/2405Z
TEMPO 2313/2321 35016G27KT

Example: see airport list